NORTHEAST SUFFOLK  -  Winter Weather Advisory Winter Weather Advisory        NORTHERN NASSAU  -  Winter Weather Advisory Winter Weather Advisory        NORTHWEST SUFFOLK  -  Winter Weather Advisory Winter Weather Advisory        SOUTHEAST SUFFOLK  -  Winter Weather Advisory Winter Weather Advisory        SOUTHERN NASSAU  -  Winter Weather Advisory Winter Weather Advisory        SOUTHWEST SUFFOLK  -  Winter Weather Advisory Winter Weather Advisory      

Active alerts

Northern Nassau
  Details for Northern Nassau Winter Weather Advisory
Southern Nassau
  Details for Southern Nassau Winter Weather Advisory
Northwest Suffolk
  Details for Northwest Suffolk Winter Weather Advisory
Southwest Suffolk
  Details for Southwest Suffolk Winter Weather Advisory
Northeast Suffolk
  Details for Northeast Suffolk Winter Weather Advisory
Southeast Suffolk
  Details for Southeast Suffolk Winter Weather Advisory


WXM80 ListenWXM80 Stop

You find our weather info also at:

UK Metoffice

WeatherCloud

Weather Underground

Northeastern Weather Network

AWEKAS

Citizen Weather Observer Program (CWOP)

HAMweather, WeatherForYou, PWS Weather


Weather Underground History page Text

Daily Summary for July 27, 2017 Units:  Metric    English   Both
« Previous Day
Next Day »
Daily Weekly Monthly Yearly Custom
  High: Low: Average:
Temperature: 26.2 °C 15.4 °C 21.2 °C
Dew Point: 21.2 °C 13.8 °C 18.6 °C
Humidity: 96 % 69 % 85 %
Wind Speed: 5.8 km/h 0 km/h 1 km/h
Wind Gust: 11.3 km/h - -
Wind:- - South
Pressure: 1018.5 hPa 1009.7 hPa -
Precipitation: 0 mm    
Historical Graphs
 
 
Tabular Data for July 27, 2017
Time Temperature Dew Point Pressure Wind Wind Speed Wind Gust Humidity Rainfall Rate (Hourly)
00:46 17.4 °C 14.8 °C 1018.5 hPa Calm   1.9 km/h 85 % 0 mm
00:51 17.4 °C 15 °C 1018.5 hPa WSW 0.2 km/h 1.9 km/h 86 % 0 mm
00:56 17.3 °C 14.9 °C 1018.5 hPa Calm     86 % 0 mm
01:01 17.3 °C 14.9 °C 1018.5 hPa Calm     86 % 0 mm
01:06 17.3 °C 14.9 °C 1018.5 hPa Calm     86 % 0 mm
01:11 17.3 °C 14.9 °C 1018.2 hPa Calm     86 % 0 mm
01:16 17.3 °C 14.9 °C 1018.2 hPa Calm     86 % 0 mm
01:21 17.2 °C 14.8 °C 1018.2 hPa Calm     86 % 0 mm
01:26 17.2 °C 14.8 °C 1018.2 hPa Calm     86 % 0 mm
01:28 17.2 °C 14.8 °C 1018.2 hPa Calm     86 % 0 mm
01:33 17.1 °C 14.7 °C 1017.8 hPa Calm     86 % 0 mm
01:38 17.1 °C 14.7 °C 1018.2 hPa Calm     86 % 0 mm
01:43 16.9 °C 14.6 °C 1018.2 hPa Calm     86 % 0 mm
01:48 16.9 °C 14.7 °C 1018.2 hPa Calm   1.6 km/h 87 % 0 mm
01:53 16.8 °C 14.7 °C 1018.2 hPa Calm     87 % 0 mm
01:58 16.7 °C 14.6 °C 1018.2 hPa Calm     87 % 0 mm
02:03 16.7 °C 14.5 °C 1017.8 hPa Calm     87 % 0 mm
02:08 16.6 °C 14.6 °C 1017.8 hPa Calm     88 % 0 mm
02:13 16.6 °C 14.6 °C 1017.8 hPa Calm     88 % 0 mm
02:18 16.5 °C 14.5 °C 1017.8 hPa Calm     88 % 0 mm
02:23 16.4 °C 14.4 °C 1017.5 hPa Calm     88 % 0 mm
02:28 16.3 °C 14.5 °C 1017.5 hPa Calm     89 % 0 mm
02:34 16.3 °C 14.4 °C 1017.5 hPa Calm     89 % 0 mm
02:39 16.2 °C 14.4 °C 1017.5 hPa Calm     89 % 0 mm
02:43 16.2 °C 14.3 °C 1017.2 hPa Calm     89 % 0 mm
02:49 16.1 °C 14.2 °C 1017.2 hPa Calm     89 % 0 mm
02:54 16 °C 14.2 °C 1017.2 hPa Calm     89 % 0 mm
02:59 15.9 °C 14.1 °C 1016.8 hPa Calm     89 % 0 mm
03:04 15.9 °C 14.1 °C 1016.8 hPa Calm     89 % 0 mm
03:09 15.8 °C 14 °C 1016.8 hPa Calm     89 % 0 mm
03:14 15.8 °C 14 °C 1016.8 hPa Calm     89 % 0 mm
03:19 15.8 °C 13.9 °C 1016.8 hPa Calm     89 % 0 mm
03:24 15.7 °C 13.9 °C 1016.5 hPa Calm     89 % 0 mm
03:29 15.7 °C 13.8 °C 1016.8 hPa Calm     89 % 0 mm
03:34 15.6 °C 13.8 °C 1016.8 hPa Calm     89 % 0 mm
03:39 15.6 °C 13.9 °C 1016.5 hPa Calm     90 % 0 mm
03:44 15.6 °C 13.9 °C 1016.5 hPa Calm     90 % 0 mm
03:49 15.5 °C 13.9 °C 1016.8 hPa Calm     90 % 0 mm
03:54 15.5 °C 13.9 °C 1016.8 hPa Calm     90 % 0 mm
03:59 15.5 °C 14.1 °C 1016.8 hPa Calm     91 % 0 mm
04:04 15.5 °C 14.1 °C 1016.5 hPa Calm     91 % 0 mm
04:09 15.5 °C 14.1 °C 1016.5 hPa Calm     91 % 0 mm
04:14 15.4 °C 14 °C 1016.5 hPa Calm     91 % 0 mm
04:19 15.4 °C 14 °C 1016.8 hPa Calm     91 % 0 mm
04:24 15.4 °C 14 °C 1016.5 hPa Calm     91 % 0 mm
04:29 15.4 °C 14 °C 1016.5 hPa Calm     91 % 0 mm
04:34 15.4 °C 14.2 °C 1016.5 hPa Calm     92 % 0 mm
04:39 15.4 °C 14.2 °C 1016.1 hPa Calm     92 % 0 mm
04:44 15.4 °C 14.3 °C 1016.1 hPa Calm     93 % 0 mm
04:49 15.6 °C 14.4 °C 1016.1 hPa Calm     93 % 0 mm
04:55 15.6 °C 14.4 °C 1016.1 hPa WSW 0.3 km/h   93 % 0 mm
05:00 15.6 °C 14.7 °C 1016.1 hPa Calm   1.9 km/h 94 % 0 mm
05:05 15.7 °C 14.7 °C 1016.1 hPa Calm     94 % 0 mm
05:10 15.7 °C 14.8 °C 1015.8 hPa WSW 0.2 km/h 3.7 km/h 94 % 0 mm
05:15 15.8 °C 14.8 °C 1016.1 hPa Calm     94 % 0 mm
05:18 15.8 °C 14.8 °C 1016.1 hPa Calm     94 % 0 mm
05:23 15.8 °C 14.8 °C 1016.1 hPa Calm     94 % 0 mm
05:28 15.8 °C 14.9 °C 1016.1 hPa Calm     94 % 0 mm
05:33 15.8 °C 14.9 °C 1016.1 hPa Calm     94 % 0 mm
05:38 15.8 °C 14.9 °C 1016.1 hPa Calm     94 % 0 mm
05:43 15.8 °C 14.9 °C 1016.5 hPa Calm     94 % 0 mm
05:48 15.8 °C 14.9 °C 1016.5 hPa Calm   1.9 km/h 94 % 0 mm
05:53 15.8 °C 14.9 °C 1016.5 hPa Calm   1.9 km/h 94 % 0 mm
05:58 15.8 °C 14.9 °C 1016.5 hPa Calm     94 % 0 mm
06:03 15.8 °C 14.9 °C 1016.5 hPa South 1 km/h 1.6 km/h 94 % 0 mm
06:08 15.8 °C 14.9 °C 1016.5 hPa Calm     94 % 0 mm
06:09 15.9 °C 14.9 °C 1016.5 hPa South 0.2 km/h 3.2 km/h 94 % 0 mm
06:14 15.9 °C 15.2 °C 1016.5 hPa South 0.2 km/h 1.9 km/h 95 % 0 mm
06:19 15.9 °C 15.2 °C 1016.5 hPa WSW 0.5 km/h   95 % 0 mm
06:24 16 °C 15.2 °C 1016.1 hPa WSW 0.2 km/h 1.9 km/h 95 % 0 mm
06:29 16.1 °C 15.3 °C 1016.1 hPa Calm   1.9 km/h 95 % 0 mm
06:34 16.2 °C 15.4 °C 1016.1 hPa Calm   1.9 km/h 95 % 0 mm
06:39 16.2 °C 15.4 °C 1016.5 hPa Calm     95 % 0 mm
06:44 16.3 °C 15.7 °C 1016.1 hPa NW 0.2 km/h 3.7 km/h 96 % 0 mm
06:49 16.4 °C 15.8 °C 1016.1 hPa WSW 0.2 km/h 4.8 km/h 96 % 0 mm
06:54 16.6 °C 15.9 °C 1016.1 hPa Calm   1.9 km/h 96 % 0 mm
06:59 16.7 °C 16.1 °C 1016.1 hPa SW 0.3 km/h 3.7 km/h 96 % 0 mm
07:04 16.8 °C 16.2 °C 1016.1 hPa SW 1.1 km/h 4.8 km/h 96 % 0 mm
07:10 16.9 °C 16.3 °C 1016.1 hPa Calm     96 % 0 mm
07:15 17 °C 16.3 °C 1016.1 hPa SW 0.6 km/h 3.7 km/h 96 % 0 mm
07:20 17.1 °C 16.4 °C 1016.1 hPa WSW 0.6 km/h 5.6 km/h 96 % 0 mm
07:25 17.2 °C 16.6 °C 1016.1 hPa WSW 0.6 km/h 3.2 km/h 96 % 0 mm
07:30 17.3 °C 16.6 °C 1016.1 hPa SSE 1.6 km/h 4.8 km/h 96 % 0 mm
07:35 17.4 °C 16.7 °C 1016.5 hPa South 0.2 km/h 1.9 km/h 96 % 0 mm
07:40 17.5 °C 16.8 °C 1016.1 hPa WSW 1.1 km/h 5.6 km/h 96 % 0 mm
07:45 17.6 °C 16.9 °C 1016.5 hPa WSW 1.6 km/h 4.8 km/h 96 % 0 mm
07:50 17.7 °C 17.1 °C 1016.5 hPa WSW 3.2 km/h 6.4 km/h 96 % 0 mm
07:55 17.9 °C 17.3 °C 1016.1 hPa SSW 2.4 km/h 9.7 km/h 96 % 0 mm
08:00 18.1 °C 17.4 °C 1016.5 hPa WSW 5.8 km/h 9.7 km/h 96 % 0 mm
08:05 18.3 °C 17.4 °C 1016.1 hPa WSW 2.4 km/h 5.6 km/h 95 % 0 mm
08:10 18.4 °C 17.6 °C 1016.1 hPa WSW 1.8 km/h 3.7 km/h 95 % 0 mm
08:15 18.7 °C 17.7 °C 1016.1 hPa WSW 2.3 km/h 3.7 km/h 94 % 0 mm
08:20 18.8 °C 17.8 °C 1016.1 hPa SW 2.7 km/h 7.4 km/h 94 % 0 mm
08:25 19.1 °C 17.8 °C 1016.1 hPa SW 0.2 km/h 3.7 km/h 92 % 0 mm
08:30 19.3 °C 17.8 °C 1016.1 hPa WSW 0.5 km/h 5.6 km/h 91 % 0 mm
08:35 19.5 °C 18 °C 1015.8 hPa SSW 0.5 km/h 1.9 km/h 91 % 0 mm
08:40 19.7 °C 17.8 °C 1015.8 hPa SW 0.2 km/h 3.2 km/h 89 % 0 mm
08:45 19.9 °C 17.9 °C 1015.8 hPa WSW 3.9 km/h 4.8 km/h 88 % 0 mm
08:50 20.2 °C 17.9 °C 1015.8 hPa WSW 4.3 km/h 6.4 km/h 87 % 0 mm
08:55 20.4 °C 17.9 °C 1015.8 hPa WSW 0.5 km/h 5.6 km/h 86 % 0 mm
09:00 20.6 °C 17.9 °C 1015.8 hPa WSW 4.5 km/h 5.6 km/h 85 % 0 mm
09:05 20.8 °C 18.2 °C 1015.8 hPa WSW 2.6 km/h 5.6 km/h 85 % 0 mm
09:10 20.9 °C 18.3 °C 1015.8 hPa SW 0.8 km/h 3.2 km/h 85 % 0 mm
09:15 21.1 °C 18.3 °C 1015.8 hPa SW 3.2 km/h 5.6 km/h 84 % 0 mm
09:20 21.3 °C 18.3 °C 1015.8 hPa ENE 1.1 km/h 5.6 km/h 83 % 0 mm
09:25 21.4 °C 18.2 °C 1015.8 hPa SW 4.5 km/h 5.6 km/h 82 % 0 mm
09:30 21.6 °C 18.2 °C 1015.5 hPa WSW 4.3 km/h 9.3 km/h 81 % 0 mm
09:35 21.7 °C 17.9 °C 1015.5 hPa SW 0.3 km/h   79 % 0 mm
09:40 21.8 °C 17.8 °C 1015.5 hPa WSW 2.6 km/h 4.8 km/h 78 % 0 mm
09:46 22 °C 18.2 °C 1015.5 hPa WSW 1.6 km/h 9.7 km/h 79 % 0 mm
09:51 22.1 °C 17.9 °C 1015.5 hPa WSW 0.6 km/h 3.7 km/h 77 % 0 mm
09:56 22.2 °C 18 °C 1015.5 hPa WSW 1.6 km/h 6.4 km/h 77 % 0 mm
10:01 22.3 °C 18.1 °C 1015.5 hPa WSW 2.3 km/h 5.6 km/h 77 % 0 mm
10:06 22.5 °C 17.8 °C 1015.1 hPa West 0.6 km/h 3.7 km/h 75 % 0 mm
10:11 22.7 °C 18.5 °C 1015.1 hPa West 0.6 km/h 3.7 km/h 77 % 0 mm
10:16 22.9 °C 18.2 °C 1015.1 hPa SSW 1 km/h 4.8 km/h 75 % 0 mm
10:21 23.1 °C 18.4 °C 1015.1 hPa WNW 0.2 km/h 1.9 km/h 75 % 0 mm
10:22 23.2 °C 18.5 °C 1015.1 hPa WNW 0.2 km/h 1.9 km/h 75 % 0 mm
10:27 23.4 °C 18.5 °C 1015.1 hPa WNW 0.3 km/h 3.7 km/h 74 % 0 mm
10:32 23.7 °C 19.2 °C 1014.8 hPa West 0.3 km/h 3.7 km/h 76 % 0 mm
10:37 24.1 °C 19.4 °C 1014.8 hPa WSW 2.4 km/h 5.6 km/h 75 % 0 mm
10:39 24.3 °C 19.3 °C 1014.8 hPa WSW 0.2 km/h 1.9 km/h 74 % 0 mm
10:44 24.6 °C 19.2 °C 1014.8 hPa WSW 1.8 km/h 9.7 km/h 72 % 0 mm
10:50 24.8 °C 19.2 °C 1014.8 hPa SSW 2.9 km/h 5.6 km/h 71 % 0 mm
10:55 24.9 °C 18.9 °C 1014.8 hPa WSW 3.2 km/h 9.7 km/h 69 % 0 mm
11:00 25.1 °C 19.3 °C 1014.4 hPa WSW 0.2 km/h 9.3 km/h 70 % 0 mm
11:05 25.2 °C 19.6 °C 1014.4 hPa West 0.2 km/h 5.6 km/h 71 % 0 mm
11:10 25.4 °C 20 °C 1014.4 hPa Calm   3.7 km/h 72 % 0 mm
11:15 25.6 °C 19.9 °C 1014.4 hPa WNW 1.9 km/h 11.3 km/h 71 % 0 mm
11:20 25.7 °C 19.6 °C 1014.4 hPa WNW 3.2 km/h 5.6 km/h 69 % 0 mm
11:25 25.8 °C 19.7 °C 1014.1 hPa WNW 1.8 km/h 4.8 km/h 69 % 0 mm
11:30 25.9 °C 19.8 °C 1014.1 hPa WNW 1.1 km/h 3.7 km/h 69 % 0 mm
11:35 26 °C 19.9 °C 1014.1 hPa North 1.4 km/h 3.7 km/h 69 % 0 mm
11:40 26 °C 19.9 °C 1014.1 hPa SSW 2.1 km/h 3.7 km/h 69 % 0 mm
11:45 26 °C 19.9 °C 1014.1 hPa West 1.4 km/h 3.7 km/h 69 % 0 mm
11:50 25.9 °C 20 °C 1014.1 hPa ENE 1.9 km/h 9.3 km/h 70 % 0 mm
11:55 25.5 °C 19.6 °C 1014.1 hPa ENE 3.9 km/h 5.6 km/h 70 % 0 mm
12:00 25.2 °C 19.8 °C 1013.8 hPa NNE 5.3 km/h 8 km/h 72 % 0 mm
12:06 25.1 °C 19.7 °C 1013.8 hPa NNE 4.8 km/h 8 km/h 72 % 0 mm
12:11 25.1 °C 20.4 °C 1013.8 hPa Calm   6.4 km/h 75 % 0 mm
12:16 25.3 °C 20.1 °C 1013.8 hPa NE 1.6 km/h 8 km/h 73 % 0 mm
12:21 25.6 °C 21.1 °C 1013.8 hPa Calm     76 % 0 mm
12:26 25.9 °C 20.7 °C 1013.8 hPa NE 1.6 km/h 3.2 km/h 73 % 0 mm
12:31 26.1 °C 20.7 °C 1013.4 hPa NNE 1.6 km/h 8 km/h 72 % 0 mm
12:36 26.2 °C 20.5 °C 1013.4 hPa North 0.3 km/h 3.2 km/h 71 % 0 mm
12:41 26.2 °C 20.5 °C 1013.4 hPa Calm   6.4 km/h 71 % 0 mm
12:46 26.2 °C 20.5 °C 1013.4 hPa North 4.8 km/h 8 km/h 71 % 0 mm
12:51 26 °C 20.1 °C 1013.4 hPa NNE 4.8 km/h 9.7 km/h 70 % 0 mm
12:56 25.8 °C 19.9 °C 1013.4 hPa NNE 1.6 km/h 6.4 km/h 70 % 0 mm
13:01 25.4 °C 19.8 °C 1013.1 hPa NNE 3.9 km/h 5.6 km/h 71 % 0 mm
13:06 25.2 °C 19.6 °C 1013.1 hPa East 1.9 km/h 9.3 km/h 71 % 0 mm
13:11 24.8 °C 19.4 °C 1013.1 hPa ENE 2.3 km/h 5.6 km/h 72 % 0 mm
13:16 24.7 °C 19.7 °C 1013.1 hPa Calm   1.9 km/h 74 % 0 mm
13:21 24.4 °C 19.3 °C 1013.1 hPa ENE 1.9 km/h 1.9 km/h 73 % 0 mm
13:26 24.5 °C 20.2 °C 1013.1 hPa ENE 0.2 km/h 1.6 km/h 77 % 0 mm
13:31 24.8 °C 20.7 °C 1013.1 hPa Calm   3.7 km/h 78 % 0 mm
13:36 24.9 °C 19.8 °C 1012.8 hPa Calm   1.9 km/h 73 % 0 mm
13:42 25.1 °C 20.4 °C 1012.8 hPa Calm   3.7 km/h 75 % 0 mm
13:47 25.2 °C 20.3 °C 1012.8 hPa NE 3.1 km/h 7.4 km/h 74 % 0 mm
13:52 25.3 °C 20.2 °C 1012.8 hPa NE 1.3 km/h 3.7 km/h 73 % 0 mm
13:57 25.5 °C 20.3 °C 1012.4 hPa NE 1.3 km/h 5.6 km/h 73 % 0 mm
14:02 25.6 °C 20.4 °C 1012.4 hPa NE 2.6 km/h 5.6 km/h 73 % 0 mm
14:07 25.8 °C 21 °C 1012.1 hPa NE 1.8 km/h 5.6 km/h 75 % 0 mm
14:12 25.8 °C 20.8 °C 1012.1 hPa North 0.8 km/h 3.7 km/h 74 % 0 mm
14:17 25.8 °C 20.4 °C 1012.1 hPa North 1.4 km/h 3.7 km/h 72 % 0 mm
14:22 25.7 °C 20.2 °C 1012.1 hPa NE 1.3 km/h 5.6 km/h 72 % 0 mm
14:27 25.5 °C 20.1 °C 1012.1 hPa North 2.4 km/h 5.6 km/h 72 % 0 mm
14:32 25.3 °C 20.2 °C 1012.1 hPa Calm   1.9 km/h 73 % 0 mm
14:37 25.1 °C 19.9 °C 1012.1 hPa Calm   1.9 km/h 73 % 0 mm
14:42 24.9 °C 20.4 °C 1012.1 hPa Calm   1.9 km/h 76 % 0 mm
14:48 24.9 °C 20.6 °C 1012.1 hPa Calm   1.9 km/h 77 % 0 mm
14:53 24.8 °C 20.9 °C 1012.1 hPa SW 1.6 km/h 6.4 km/h 79 % 0 mm
14:58 24.7 °C 20.8 °C 1012.1 hPa West 0.3 km/h 1.9 km/h 79 % 0 mm
15:03 24.7 °C 20.8 °C 1012.1 hPa Calm     79 % 0 mm
15:08 24.6 °C 20.9 °C 1011.7 hPa WNW 0.8 km/h 1.9 km/h 80 % 0 mm
15:13 24.6 °C 20.9 °C 1011.7 hPa Calm   1.9 km/h 80 % 0 mm
15:18 24.5 °C 20.8 °C 1012.1 hPa SW 0.6 km/h 3.7 km/h 80 % 0 mm
15:23 24.5 °C 20.8 °C 1012.1 hPa SW 0.6 km/h 1.9 km/h 80 % 0 mm
15:29 24.4 °C 20.8 °C 1012.1 hPa SSW 1 km/h 1.9 km/h 80 % 0 mm
15:34 24.4 °C 20.8 °C 1011.7 hPa Calm   1.9 km/h 80 % 0 mm
15:39 24.3 °C 20.4 °C 1012.1 hPa SE 1.1 km/h 5.6 km/h 79 % 0 mm
15:44 24.3 °C 20.4 °C 1012.1 hPa South 0.5 km/h 1.9 km/h 79 % 0 mm
15:49 24.2 °C 20.5 °C 1012.1 hPa SE 1.3 km/h 5.6 km/h 80 % 0 mm
15:54 24 °C 20.1 °C 1012.1 hPa Calm   1.9 km/h 79 % 0 mm
15:59 23.8 °C 20.2 °C 1012.1 hPa SE 2.1 km/h 7.4 km/h 80 % 0 mm
16:04 23.8 °C 20.3 °C 1011.7 hPa SE 0.5 km/h 5.6 km/h 81 % 0 mm
16:09 23.8 °C 20.3 °C 1011.7 hPa SSE 0.8 km/h 3.7 km/h 81 % 0 mm
16:14 23.8 °C 20.5 °C 1011.7 hPa SSW 3.4 km/h 9.3 km/h 82 % 0 mm
16:19 23.8 °C 20.3 °C 1011.7 hPa South 0.2 km/h 1.9 km/h 81 % 0 mm
16:24 23.7 °C 20.3 °C 1011.7 hPa South 2.1 km/h 5.6 km/h 81 % 0 mm
16:25 23.7 °C 20.3 °C 1011.7 hPa SSW 2.3 km/h 5.6 km/h 81 % 0 mm
16:30 23.7 °C 20.4 °C 1011.7 hPa WSW 2.6 km/h 5.6 km/h 82 % 0 mm
16:35 23.7 °C 20.4 °C 1011.7 hPa Calm   1.9 km/h 82 % 0 mm
16:40 23.7 °C 20.6 °C 1011.7 hPa Calm     83 % 0 mm
16:45 23.7 °C 20.8 °C 1011.7 hPa Calm   1.9 km/h 84 % 0 mm
16:50 23.7 °C 21 °C 1011.4 hPa SSW 0.5 km/h 1.9 km/h 85 % 0 mm
16:55 23.6 °C 20.9 °C 1011.4 hPa SSW 0.6 km/h 1.9 km/h 85 % 0 mm
17:00 23.6 °C 20.9 °C 1011.4 hPa SSW 0.5 km/h 3.7 km/h 85 % 0 mm
17:05 23.6 °C 20.9 °C 1011.4 hPa Calm     85 % 0 mm
17:10 23.6 °C 20.9 °C 1011.4 hPa South 0.2 km/h 1.9 km/h 85 % 0 mm
17:15 23.6 °C 20.9 °C 1011.4 hPa Calm   1.6 km/h 85 % 0 mm
17:20 23.6 °C 20.9 °C 1011.4 hPa Calm     85 % 0 mm
17:25 23.6 °C 20.9 °C 1011.1 hPa Calm   1.9 km/h 85 % 0 mm
17:26 23.6 °C 20.9 °C 1011.1 hPa SE 0.5 km/h 3.7 km/h 85 % 0 mm
17:31 23.6 °C 20.9 °C 1011.1 hPa SW 1 km/h 5.6 km/h 85 % 0 mm
17:36 23.6 °C 20.9 °C 1011.1 hPa SE 1 km/h 3.7 km/h 85 % 0 mm
17:41 23.6 °C 20.9 °C 1011.1 hPa SE 3.5 km/h 7.4 km/h 85 % 0 mm
17:46 23.6 °C 20.9 °C 1011.1 hPa SE 0.2 km/h 1.9 km/h 85 % 0 mm
17:51 23.6 °C 20.9 °C 1011.1 hPa SW 2.6 km/h 5.6 km/h 85 % 0 mm
17:56 23.6 °C 20.9 °C 1011.1 hPa Calm     85 % 0 mm
18:01 23.6 °C 20.9 °C 1011.1 hPa SSW 1.3 km/h 5.6 km/h 85 % 0 mm
18:06 23.6 °C 20.9 °C 1011.1 hPa South 0.6 km/h 1.9 km/h 85 % 0 mm
18:11 23.6 °C 20.9 °C 1011.1 hPa SE 0.8 km/h 5.6 km/h 85 % 0 mm
18:16 23.5 °C 20.8 °C 1011.1 hPa WSW 1.3 km/h 5.6 km/h 85 % 0 mm
18:21 23.6 °C 20.9 °C 1010.7 hPa Calm   1.9 km/h 85 % 0 mm
18:26 23.5 °C 20.8 °C 1010.7 hPa SW 0.2 km/h 1.9 km/h 85 % 0 mm
18:31 23.6 °C 20.9 °C 1010.7 hPa South 0.5 km/h 3.7 km/h 85 % 0 mm
18:36 23.5 °C 20.8 °C 1010.7 hPa SSE 2.1 km/h 11.1 km/h 85 % 0 mm
18:42 23.4 °C 20.8 °C 1010.7 hPa SSE 0.8 km/h 5.6 km/h 85 % 0 mm
18:47 23.4 °C 20.8 °C 1010.7 hPa SSE 1.6 km/h 5.6 km/h 85 % 0 mm
18:52 23.4 °C 20.9 °C 1010.7 hPa Calm   1.9 km/h 86 % 0 mm
18:57 23.4 °C 20.9 °C 1010.7 hPa South 1.1 km/h 3.7 km/h 86 % 0 mm
19:02 23.4 °C 20.9 °C 1010.7 hPa SE 1 km/h 9.7 km/h 86 % 0 mm
19:07 23.4 °C 20.9 °C 1010.7 hPa SE 0.6 km/h 5.6 km/h 86 % 0 mm
19:12 23.4 °C 21.2 °C 1010.7 hPa SSW 0.5 km/h 3.7 km/h 87 % 0 mm
19:17 23.4 °C 21.2 °C 1010.7 hPa SSW 0.8 km/h 3.7 km/h 87 % 0 mm
19:22 23.4 °C 21.2 °C 1010.7 hPa SSE 1 km/h 3.7 km/h 87 % 0 mm
19:27 23.4 °C 21.2 °C 1010.7 hPa SSE 0.3 km/h 1.9 km/h 87 % 0 mm
19:32 23.4 °C 21.2 °C 1010.7 hPa SE 0.8 km/h 3.7 km/h 87 % 0 mm
19:37 23.4 °C 21.2 °C 1010.7 hPa Calm   5.6 km/h 87 % 0 mm
19:42 23.4 °C 21.1 °C 1010.7 hPa SE 1.6 km/h 1.9 km/h 87 % 0 mm
19:47 23.3 °C 21.1 °C 1010.4 hPa WSW 1.4 km/h 1.9 km/h 87 % 0 mm
19:52 23.3 °C 21.2 °C 1010.4 hPa WSW 0.8 km/h 1.9 km/h 88 % 0 mm
19:57 23.3 °C 21 °C 1010.4 hPa WSW 0.2 km/h 3.7 km/h 87 % 0 mm
20:00 23.3 °C 21 °C 1010.4 hPa WSW 2.1 km/h 3.7 km/h 87 % 0 mm
20:05 23.2 °C 21.1 °C 1010.4 hPa SE 1 km/h 1.9 km/h 88 % 0 mm
20:10 23.2 °C 21.1 °C 1010.4 hPa SE 0.2 km/h 1.9 km/h 88 % 0 mm
20:15 23.1 °C 21 °C 1010 hPa SE 1.8 km/h 5.6 km/h 88 % 0 mm
20:20 23.1 °C 21.2 °C 1010.4 hPa South 0.8 km/h 3.7 km/h 89 % 0 mm
20:25 23 °C 21.1 °C 1010 hPa South 0.6 km/h 3.2 km/h 89 % 0 mm
20:30 23 °C 21.1 °C 1010 hPa South 0.5 km/h 3.2 km/h 89 % 0 mm
20:35 22.9 °C 21.1 °C 1010.4 hPa SW 3.1 km/h 7.4 km/h 89 % 0 mm
20:40 22.9 °C 21.1 °C 1010 hPa SW 1.4 km/h 3.7 km/h 89 % 0 mm
20:45 22.9 °C 21 °C 1010 hPa SSW 0.3 km/h 1.9 km/h 89 % 0 mm
20:50 22.8 °C 20.9 °C 1010 hPa SSW 1.6 km/h 5.6 km/h 89 % 0 mm
20:55 22.8 °C 21.1 °C 1010 hPa SSW 0.8 km/h 3.2 km/h 90 % 0 mm
21:00 22.8 °C 21.1 °C 1010.4 hPa SSW 1 km/h 3.7 km/h 90 % 0 mm
21:05 22.8 °C 21.1 °C 1010 hPa SE 1 km/h 3.7 km/h 90 % 0 mm
21:10 22.8 °C 21.1 °C 1010.4 hPa SSE 0.3 km/h 1.9 km/h 90 % 0 mm
21:15 22.7 °C 21.2 °C 1010.4 hPa SSE 0.3 km/h 1.9 km/h 91 % 0 mm
21:20 22.7 °C 21.2 °C 1010.4 hPa Calm   1.9 km/h 91 % 0 mm
21:25 22.7 °C 21.2 °C 1010.4 hPa SSE 1 km/h 1.9 km/h 91 % 0 mm
21:30 22.7 °C 21.1 °C 1010.4 hPa WSW 0.5 km/h 3.7 km/h 91 % 0 mm
21:35 22.7 °C 21.1 °C 1010.4 hPa SE 0.5 km/h 3.7 km/h 91 % 0 mm
21:41 22.7 °C 21.1 °C 1010.4 hPa Calm   8 km/h 91 % 0 mm
21:46 22.6 °C 21.1 °C 1010.4 hPa South 1.6 km/h 3.7 km/h 91 % 0 mm
21:51 22.6 °C 21.1 °C 1010.4 hPa SSW 1.6 km/h 6.4 km/h 91 % 0 mm
21:56 22.6 °C 21.1 °C 1010.4 hPa SW 1.6 km/h 4.8 km/h 91 % 0 mm
22:01 22.6 °C 21.1 °C 1010.4 hPa WSW 1 km/h 1.9 km/h 91 % 0 mm
22:06 22.6 °C 21.1 °C 1010 hPa Calm     91 % 0 mm
22:11 22.6 °C 21.1 °C 1010 hPa Calm     91 % 0 mm
22:16 22.6 °C 21.1 °C 1010 hPa SSE 1.1 km/h 3.7 km/h 91 % 0 mm
22:21 22.6 °C 21.2 °C 1010 hPa Calm     92 % 0 mm
22:26 22.6 °C 21.2 °C 1010 hPa WNW 0.2 km/h 1.9 km/h 92 % 0 mm
22:31 22.6 °C 21.2 °C 1010 hPa West 1.4 km/h 5.6 km/h 92 % 0 mm
22:36 22.6 °C 21.2 °C 1010 hPa SE 1.1 km/h 3.7 km/h 92 % 0 mm
22:41 22.6 °C 21.1 °C 1009.7 hPa South 0.8 km/h 5.6 km/h 91 % 0 mm
22:46 22.6 °C 21.1 °C 1010 hPa SSW 3.4 km/h 9.3 km/h 91 % 0 mm
22:51 22.6 °C 21.2 °C 1009.7 hPa WSW 2.3 km/h 11.1 km/h 92 % 0 mm
22:56 22.6 °C 21.2 °C 1009.7 hPa Calm   3.7 km/h 92 % 0 mm
23:01 22.6 °C 21.2 °C 1010 hPa SW 1.6 km/h 6.4 km/h 92 % 0 mm
23:06 22.6 °C 21.2 °C 1009.7 hPa SSW 2.6 km/h 5.6 km/h 92 % 0 mm
23:11 22.6 °C 21.2 °C 1009.7 hPa WSW 3.7 km/h 5.6 km/h 92 % 0 mm
23:16 22.6 °C 21.2 °C 1009.7 hPa SW 1.6 km/h 3.7 km/h 92 % 0 mm
23:21 22.6 °C 21.2 °C 1009.7 hPa SSW 2.6 km/h 5.6 km/h 92 % 0 mm
23:26 22.6 °C 21.2 °C 1009.7 hPa SSW 1.3 km/h 5.6 km/h 92 % 0 mm
23:31 22.6 °C 21.2 °C 1009.7 hPa SSW 2.6 km/h 3.7 km/h 92 % 0 mm
23:36 22.6 °C 21.2 °C 1009.7 hPa SW 1.3 km/h 6.4 km/h 92 % 0 mm
23:41 22.6 °C 21.2 °C 1009.7 hPa SW 0.6 km/h 5.6 km/h 92 % 0 mm
23:46 22.6 °C 21.2 °C 1009.7 hPa WSW 3.2 km/h 5.6 km/h 92 % 0 mm
23:52 22.6 °C 21.2 °C 1009.7 hPa SW 0.3 km/h 5.6 km/h 92 % 0 mm
23:56 22.6 °C 21.2 °C 1009.7 hPa SSW 0.3 km/h 1.9 km/h 92 % 0 mm
Crab Meadow Weather
Compliments of Weather Underground - 3 mb

Script developed by  Jim McMurry - jmcmurry@mwt.net Adapted for the template by  Wim van der Kuil - Leuven-Template.eu

Astronomy: Neptune has at least 11 moons.